sensor_id;sensor_type;location;lat;lon;timestamp;temperature;humidity
108;DHT22;49;48.530;9.200;2023-08-20T00:00:46;27.00;1.00
108;DHT22;49;48.530;9.200;2023-08-20T00:03:13;27.00;1.00
108;DHT22;49;48.530;9.200;2023-08-20T00:05:41;26.90;1.00
108;DHT22;49;48.530;9.200;2023-08-20T00:08:09;26.50;1.10
108;DHT22;49;48.530;9.200;2023-08-20T00:10:36;26.20;1.70
108;DHT22;49;48.530;9.200;2023-08-20T00:13:03;26.10;2.20
108;DHT22;49;48.530;9.200;2023-08-20T00:15:30;26.10;2.50
108;DHT22;49;48.530;9.200;2023-08-20T00:17:58;26.10;3.30
108;DHT22;49;48.530;9.200;2023-08-20T00:20:25;26.30;2.40
108;DHT22;49;48.530;9.200;2023-08-20T00:22:55;26.50;1.50
108;DHT22;49;48.530;9.200;2023-08-20T00:25:24;26.50;1.40
108;DHT22;49;48.530;9.200;2023-08-20T00:27:51;26.60;1.00
108;DHT22;49;48.530;9.200;2023-08-20T00:30:18;26.50;2.00
108;DHT22;49;48.530;9.200;2023-08-20T00:32:45;26.40;1.90
108;DHT22;49;48.530;9.200;2023-08-20T00:35:12;26.60;1.40
108;DHT22;49;48.530;9.200;2023-08-20T00:37:38;26.50;1.20
108;DHT22;49;48.530;9.200;2023-08-20T00:40:06;26.50;1.10
108;DHT22;49;48.530;9.200;2023-08-20T00:42:36;26.50;1.00
108;DHT22;49;48.530;9.200;2023-08-20T00:45:03;26.40;1.20
108;DHT22;49;48.530;9.200;2023-08-20T00:47:31;26.40;1.20
108;DHT22;49;48.530;9.200;2023-08-20T00:49:58;26.50;1.20
108;DHT22;49;48.530;9.200;2023-08-20T00:52:25;26.50;1.00
108;DHT22;49;48.530;9.200;2023-08-20T00:54:53;26.20;1.90
108;DHT22;49;48.530;9.200;2023-08-20T00:57:21;26.30;1.60
108;DHT22;49;48.530;9.200;2023-08-20T00:59:51;26.30;1.60
108;DHT22;49;48.530;9.200;2023-08-20T01:02:18;26.10;2.20
108;DHT22;49;48.530;9.200;2023-08-20T01:04:47;26.10;2.00
108;DHT22;49;48.530;9.200;2023-08-20T01:07:23;26.10;2.30
108;DHT22;49;48.530;9.200;2023-08-20T01:09:59;25.80;3.20
108;DHT22;49;48.530;9.200;2023-08-20T01:12:31;25.60;4.10
108;DHT22;49;48.530;9.200;2023-08-20T01:15:02;25.50;4.30
108;DHT22;49;48.530;9.200;2023-08-20T01:17:29;25.60;4.10
108;DHT22;49;48.530;9.200;2023-08-20T01:19:56;25.70;3.50
108;DHT22;49;48.530;9.200;2023-08-20T01:22:51;25.90;3.10
108;DHT22;49;48.530;9.200;2023-08-20T01:25:32;25.90;2.70
108;DHT22;49;48.530;9.200;2023-08-20T01:28:18;26.10;2.30
108;DHT22;49;48.530;9.200;2023-08-20T01:30:46;25.90;3.00
108;DHT22;49;48.530;9.200;2023-08-20T01:33:13;25.80;3.10
108;DHT22;49;48.530;9.200;2023-08-20T01:35:41;25.80;3.10
108;DHT22;49;48.530;9.200;2023-08-20T01:38:08;25.60;3.60
108;DHT22;49;48.530;9.200;2023-08-20T01:40:35;25.70;3.10
108;DHT22;49;48.530;9.200;2023-08-20T01:43:02;25.70;2.60
108;DHT22;49;48.530;9.200;2023-08-20T01:45:30;25.90;1.40
108;DHT22;49;48.530;9.200;2023-08-20T01:47:57;26.00;1.80
108;DHT22;49;48.530;9.200;2023-08-20T01:50:24;25.90;2.20
108;DHT22;49;48.530;9.200;2023-08-20T01:52:50;25.60;2.90
108;DHT22;49;48.530;9.200;2023-08-20T01:55:17;25.50;4.00
108;DHT22;49;48.530;9.200;2023-08-20T01:57:44;25.70;2.50
108;DHT22;49;48.530;9.200;2023-08-20T02:00:12;26.00;1.00
108;DHT22;49;48.530;9.200;2023-08-20T02:02:41;25.90;1.90
108;DHT22;49;48.530;9.200;2023-08-20T02:05:07;25.80;1.80
108;DHT22;49;48.530;9.200;2023-08-20T02:07:36;25.80;1.90
108;DHT22;49;48.530;9.200;2023-08-20T02:10:03;25.80;2.40
108;DHT22;49;48.530;9.200;2023-08-20T02:12:30;25.80;2.50
108;DHT22;49;48.530;9.200;2023-08-20T02:14:57;25.90;2.50
108;DHT22;49;48.530;9.200;2023-08-20T02:17:24;25.90;1.90
108;DHT22;49;48.530;9.200;2023-08-20T02:19:52;25.90;1.10
108;DHT22;49;48.530;9.200;2023-08-20T02:22:19;25.90;1.50
108;DHT22;49;48.530;9.200;2023-08-20T02:24:46;25.70;2.30
108;DHT22;49;48.530;9.200;2023-08-20T02:27:13;25.70;2.60
108;DHT22;49;48.530;9.200;2023-08-20T02:29:40;25.70;2.40
108;DHT22;49;48.530;9.200;2023-08-20T02:32:07;25.80;2.30
108;DHT22;49;48.530;9.200;2023-08-20T02:34:33;25.60;2.80
108;DHT22;49;48.530;9.200;2023-08-20T02:37:01;25.60;3.10
108;DHT22;49;48.530;9.200;2023-08-20T02:39:28;25.60;2.80
108;DHT22;49;48.530;9.200;2023-08-20T02:41:54;25.50;3.00
108;DHT22;49;48.530;9.200;2023-08-20T02:44:21;25.60;2.90
108;DHT22;49;48.530;9.200;2023-08-20T02:46:48;25.70;2.10
108;DHT22;49;48.530;9.200;2023-08-20T02:49:15;25.70;2.70
108;DHT22;49;48.530;9.200;2023-08-20T02:51:42;25.60;2.90
108;DHT22;49;48.530;9.200;2023-08-20T02:54:11;25.40;3.60
108;DHT22;49;48.530;9.200;2023-08-20T02:56:38;25.30;4.20
108;DHT22;49;48.530;9.200;2023-08-20T02:59:05;25.20;4.30
108;DHT22;49;48.530;9.200;2023-08-20T03:01:32;25.10;4.70
108;DHT22;49;48.530;9.200;2023-08-20T03:03:58;25.10;4.70
108;DHT22;49;48.530;9.200;2023-08-20T03:06:25;25.20;4.30
108;DHT22;49;48.530;9.200;2023-08-20T03:08:52;25.50;3.50
108;DHT22;49;48.530;9.200;2023-08-20T03:11:20;25.40;4.40
108;DHT22;49;48.530;9.200;2023-08-20T03:13:47;25.10;4.10
108;DHT22;49;48.530;9.200;2023-08-20T03:16:14;25.00;5.10
108;DHT22;49;48.530;9.200;2023-08-20T03:18:41;25.00;5.10
108;DHT22;49;48.530;9.200;2023-08-20T03:21:08;25.00;5.40
108;DHT22;49;48.530;9.200;2023-08-20T03:23:35;24.90;5.40
108;DHT22;49;48.530;9.200;2023-08-20T03:26:02;24.60;6.80
108;DHT22;49;48.530;9.200;2023-08-20T03:28:30;24.50;6.80
108;DHT22;49;48.530;9.200;2023-08-20T03:30:59;24.10;8.00
108;DHT22;49;48.530;9.200;2023-08-20T03:33:27;23.70;8.90
108;DHT22;49;48.530;9.200;2023-08-20T03:35:54;23.50;10.10
108;DHT22;49;48.530;9.200;2023-08-20T03:38:21;23.40;11.50
108;DHT22;49;48.530;9.200;2023-08-20T03:40:47;23.60;10.90
108;DHT22;49;48.530;9.200;2023-08-20T03:43:14;23.80;10.10
108;DHT22;49;48.530;9.200;2023-08-20T03:45:43;24.00;9.70
108;DHT22;49;48.530;9.200;2023-08-20T03:48:10;24.10;9.00
108;DHT22;49;48.530;9.200;2023-08-20T03:50:37;24.10;8.40
108;DHT22;49;48.530;9.200;2023-08-20T03:53:04;24.50;6.90
108;DHT22;49;48.530;9.200;2023-08-20T03:55:30;24.80;5.60
108;DHT22;49;48.530;9.200;2023-08-20T03:57:57;24.90;4.80
108;DHT22;49;48.530;9.200;2023-08-20T04:00:24;25.00;4.80
108;DHT22;49;48.530;9.200;2023-08-20T04:02:52;25.00;4.60
108;DHT22;49;48.530;9.200;2023-08-20T04:05:19;25.00;4.50
108;DHT22;49;48.530;9.200;2023-08-20T04:07:46;24.60;5.40
108;DHT22;49;48.530;9.200;2023-08-20T04:10:13;24.80;5.50
108;DHT22;49;48.530;9.200;2023-08-20T04:12:40;24.50;5.90
108;DHT22;49;48.530;9.200;2023-08-20T04:15:07;24.50;6.50
108;DHT22;49;48.530;9.200;2023-08-20T04:17:33;24.70;5.90
108;DHT22;49;48.530;9.200;2023-08-20T04:20:02;24.90;5.20
108;DHT22;49;48.530;9.200;2023-08-20T04:22:33;24.90;5.50
108;DHT22;49;48.530;9.200;2023-08-20T04:24:59;24.70;5.60
108;DHT22;49;48.530;9.200;2023-08-20T04:27:26;24.70;5.80
108;DHT22;49;48.530;9.200;2023-08-20T04:29:53;24.70;5.80
108;DHT22;49;48.530;9.200;2023-08-20T04:32:20;24.80;5.40
108;DHT22;49;48.530;9.200;2023-08-20T04:34:47;24.70;5.00
108;DHT22;49;48.530;9.200;2023-08-20T04:37:16;24.90;4.70
108;DHT22;49;48.530;9.200;2023-08-20T04:39:43;25.20;3.90
108;DHT22;49;48.530;9.200;2023-08-20T04:42:10;25.40;2.40
108;DHT22;49;48.530;9.200;2023-08-20T04:44:37;25.50;2.60
108;DHT22;49;48.530;9.200;2023-08-20T04:47:04;25.40;2.80
108;DHT22;49;48.530;9.200;2023-08-20T04:49:31;25.30;3.10
108;DHT22;49;48.530;9.200;2023-08-20T04:51:58;25.30;3.50
108;DHT22;49;48.530;9.200;2023-08-20T04:54:26;25.30;3.40
108;DHT22;49;48.530;9.200;2023-08-20T04:56:53;25.40;2.70
108;DHT22;49;48.530;9.200;2023-08-20T04:59:20;25.40;2.70
108;DHT22;49;48.530;9.200;2023-08-20T05:01:46;25.20;3.60
108;DHT22;49;48.530;9.200;2023-08-20T05:04:13;25.10;4.10
108;DHT22;49;48.530;9.200;2023-08-20T05:06:40;25.00;4.60
108;DHT22;49;48.530;9.200;2023-08-20T05:09:07;25.10;4.10
108;DHT22;49;48.530;9.200;2023-08-20T05:11:35;25.30;4.20
108;DHT22;49;48.530;9.200;2023-08-20T05:14:03;25.30;4.20
108;DHT22;49;48.530;9.200;2023-08-20T05:16:30;25.30;4.30
108;DHT22;49;48.530;9.200;2023-08-20T05:18:57;25.20;5.30
108;DHT22;49;48.530;9.200;2023-08-20T05:21:24;25.30;4.80
108;DHT22;49;48.530;9.200;2023-08-20T05:23:51;25.30;5.00
108;DHT22;49;48.530;9.200;2023-08-20T05:26:18;25.60;4.50
108;DHT22;49;48.530;9.200;2023-08-20T05:28:46;25.70;4.40
108;DHT22;49;48.530;9.200;2023-08-20T05:31:13;25.90;4.00
108;DHT22;49;48.530;9.200;2023-08-20T05:33:40;25.90;4.50
108;DHT22;49;48.530;9.200;2023-08-20T05:36:07;26.00;5.00
108;DHT22;49;48.530;9.200;2023-08-20T05:38:33;26.70;3.50
108;DHT22;49;48.530;9.200;2023-08-20T05:41:00;27.60;3.40
108;DHT22;49;48.530;9.200;2023-08-20T05:43:27;28.60;1.00
108;DHT22;49;48.530;9.200;2023-08-20T05:45:56;29.20;1.00
108;DHT22;49;48.530;9.200;2023-08-20T05:48:23;29.90;1.00
108;DHT22;49;48.530;9.200;2023-08-20T05:50:50;30.50;1.00
108;DHT22;49;48.530;9.200;2023-08-20T05:53:17;31.50;1.00
108;DHT22;49;48.530;9.200;2023-08-20T05:55:43;32.30;1.00
108;DHT22;49;48.530;9.200;2023-08-20T05:58:10;32.80;1.00
108;DHT22;49;48.530;9.200;2023-08-20T06:00:37;32.50;1.00
108;DHT22;49;48.530;9.200;2023-08-20T06:03:06;32.50;1.00
108;DHT22;49;48.530;9.200;2023-08-20T06:05:33;32.00;1.00
108;DHT22;49;48.530;9.200;2023-08-20T06:08:00;31.80;1.00
108;DHT22;49;48.530;9.200;2023-08-20T06:10:27;32.40;1.00
108;DHT22;49;48.530;9.200;2023-08-20T06:12:54;32.50;1.00
108;DHT22;49;48.530;9.200;2023-08-20T06:15:22;33.50;1.00
108;DHT22;49;48.530;9.200;2023-08-20T06:17:49;34.30;1.00
108;DHT22;49;48.530;9.200;2023-08-20T06:20:17;34.90;1.00
108;DHT22;49;48.530;9.200;2023-08-20T06:22:44;34.50;1.00
108;DHT22;49;48.530;9.200;2023-08-20T06:25:11;34.50;1.00
108;DHT22;49;48.530;9.200;2023-08-20T06:27:38;34.10;1.00
108;DHT22;49;48.530;9.200;2023-08-20T06:30:06;34.40;1.00
108;DHT22;49;48.530;9.200;2023-08-20T06:32:34;34.70;1.00
108;DHT22;49;48.530;9.200;2023-08-20T06:35:01;35.70;1.00
108;DHT22;49;48.530;9.200;2023-08-20T06:37:30;35.70;1.00
108;DHT22;49;48.530;9.200;2023-08-20T06:39:57;35.30;1.00
108;DHT22;49;48.530;9.200;2023-08-20T06:42:24;35.40;1.00
108;DHT22;49;48.530;9.200;2023-08-20T06:44:51;35.30;1.00
108;DHT22;49;48.530;9.200;2023-08-20T06:47:18;35.30;1.00
108;DHT22;49;48.530;9.200;2023-08-20T06:49:45;35.20;1.00
108;DHT22;49;48.530;9.200;2023-08-20T06:52:12;34.90;1.00
108;DHT22;49;48.530;9.200;2023-08-20T06:54:40;34.90;1.00
108;DHT22;49;48.530;9.200;2023-08-20T06:57:07;35.20;1.00
108;DHT22;49;48.530;9.200;2023-08-20T06:59:34;35.30;1.00
108;DHT22;49;48.530;9.200;2023-08-20T07:02:01;35.40;1.00
108;DHT22;49;48.530;9.200;2023-08-20T07:04:29;34.60;1.00
108;DHT22;49;48.530;9.200;2023-08-20T07:06:56;33.90;1.00
108;DHT22;49;48.530;9.200;2023-08-20T07:09:23;33.20;1.00
108;DHT22;49;48.530;9.200;2023-08-20T07:11:52;33.10;1.00
108;DHT22;49;48.530;9.200;2023-08-20T07:14:19;33.90;1.00
108;DHT22;49;48.530;9.200;2023-08-20T07:16:46;34.80;1.00
108;DHT22;49;48.530;9.200;2023-08-20T07:19:13;34.80;1.00
108;DHT22;49;48.530;9.200;2023-08-20T07:21:40;35.40;1.00
108;DHT22;49;48.530;9.200;2023-08-20T07:24:07;35.20;1.00
108;DHT22;49;48.530;9.200;2023-08-20T07:26:34;35.20;1.00
108;DHT22;49;48.530;9.200;2023-08-20T07:29:03;35.60;1.00
108;DHT22;49;48.530;9.200;2023-08-20T07:31:32;35.90;1.00
108;DHT22;49;48.530;9.200;2023-08-20T07:34:01;36.00;1.00
108;DHT22;49;48.530;9.200;2023-08-20T07:36:29;35.30;1.00
108;DHT22;49;48.530;9.200;2023-08-20T07:38:56;35.80;1.00
108;DHT22;49;48.530;9.200;2023-08-20T07:41:23;36.50;1.00
108;DHT22;49;48.530;9.200;2023-08-20T07:43:50;37.10;1.00
108;DHT22;49;48.530;9.200;2023-08-20T07:46:20;37.00;1.00
108;DHT22;49;48.530;9.200;2023-08-20T07:48:47;36.30;1.00
108;DHT22;49;48.530;9.200;2023-08-20T07:51:14;35.40;1.00
108;DHT22;49;48.530;9.200;2023-08-20T07:53:42;35.80;1.00
108;DHT22;49;48.530;9.200;2023-08-20T07:56:09;35.90;1.00
108;DHT22;49;48.530;9.200;2023-08-20T07:58:36;35.90;1.00
108;DHT22;49;48.530;9.200;2023-08-20T08:01:06;36.70;1.00
108;DHT22;49;48.530;9.200;2023-08-20T08:03:34;36.60;1.00
108;DHT22;49;48.530;9.200;2023-08-20T08:06:02;36.90;1.00
108;DHT22;49;48.530;9.200;2023-08-20T08:08:29;36.50;1.00
108;DHT22;49;48.530;9.200;2023-08-20T08:10:56;36.90;1.00
108;DHT22;49;48.530;9.200;2023-08-20T08:13:27;37.00;1.00
108;DHT22;49;48.530;9.200;2023-08-20T08:15:54;37.00;1.00
108;DHT22;49;48.530;9.200;2023-08-20T08:18:25;37.20;1.00
108;DHT22;49;48.530;9.200;2023-08-20T08:20:56;37.90;1.00
108;DHT22;49;48.530;9.200;2023-08-20T08:23:23;38.10;1.00
108;DHT22;49;48.530;9.200;2023-08-20T08:25:55;38.00;1.00
108;DHT22;49;48.530;9.200;2023-08-20T08:28:22;37.90;1.00
108;DHT22;49;48.530;9.200;2023-08-20T08:30:50;37.50;1.00
108;DHT22;49;48.530;9.200;2023-08-20T08:33:17;37.80;1.00
108;DHT22;49;48.530;9.200;2023-08-20T08:35:44;37.50;1.00
108;DHT22;49;48.530;9.200;2023-08-20T08:38:13;37.40;1.00
108;DHT22;49;48.530;9.200;2023-08-20T08:40:41;37.50;1.00
108;DHT22;49;48.530;9.200;2023-08-20T08:43:10;37.70;1.00
108;DHT22;49;48.530;9.200;2023-08-20T08:45:45;38.30;1.00
108;DHT22;49;48.530;9.200;2023-08-20T08:48:13;37.20;1.00
108;DHT22;49;48.530;9.200;2023-08-20T08:53:12;37.60;1.00
108;DHT22;49;48.530;9.200;2023-08-20T09:03:13;37.60;1.00
108;DHT22;49;48.530;9.200;2023-08-20T09:15:41;36.30;1.00
108;DHT22;49;48.530;9.200;2023-08-20T09:18:09;36.10;1.00
108;DHT22;49;48.530;9.200;2023-08-20T09:20:37;35.30;1.00
108;DHT22;49;48.530;9.200;2023-08-20T09:23:11;35.20;1.00
108;DHT22;49;48.530;9.200;2023-08-20T09:28:07;34.70;1.00
108;DHT22;49;48.530;9.200;2023-08-20T09:33:09;35.20;1.00
108;DHT22;49;48.530;9.200;2023-08-20T09:35:36;34.90;1.00
108;DHT22;49;48.530;9.200;2023-08-20T09:40:33;35.00;1.00
108;DHT22;49;48.530;9.200;2023-08-20T09:45:30;34.20;1.00
108;DHT22;49;48.530;9.200;2023-08-20T09:50:36;34.20;1.00
108;DHT22;49;48.530;9.200;2023-08-20T09:53:08;34.40;1.00
108;DHT22;49;48.530;9.200;2023-08-20T09:58:09;34.60;1.00
108;DHT22;49;48.530;9.200;2023-08-20T10:00:38;34.30;1.00
108;DHT22;49;48.530;9.200;2023-08-20T10:03:06;34.20;1.00
108;DHT22;49;48.530;9.200;2023-08-20T10:10:41;34.10;1.00
108;DHT22;49;48.530;9.200;2023-08-20T10:38:36;33.90;1.00
108;DHT22;49;48.530;9.200;2023-08-20T10:56:22;34.80;1.00
108;DHT22;49;48.530;9.200;2023-08-20T12:35:40;35.20;1.00
108;DHT22;49;48.530;9.200;2023-08-20T12:43:06;34.60;1.00
108;DHT22;49;48.530;9.200;2023-08-20T12:45:34;34.60;1.00
108;DHT22;49;48.530;9.200;2023-08-20T12:48:07;34.70;1.00
108;DHT22;49;48.530;9.200;2023-08-20T13:56:50;35.90;1.00
108;DHT22;49;48.530;9.200;2023-08-20T14:04:22;35.20;1.00
108;DHT22;49;48.530;9.200;2023-08-20T14:22:15;35.10;1.00
108;DHT22;49;48.530;9.200;2023-08-20T14:32:24;35.20;1.00
108;DHT22;49;48.530;9.200;2023-08-20T14:37:26;35.10;1.00
108;DHT22;49;48.530;9.200;2023-08-20T15:02:55;34.40;1.00
108;DHT22;49;48.530;9.200;2023-08-20T15:07:57;34.40;1.00
108;DHT22;49;48.530;9.200;2023-08-20T16:06:26;33.50;1.00
108;DHT22;49;48.530;9.200;2023-08-20T16:21:54;33.40;1.00
108;DHT22;49;48.530;9.200;2023-08-20T17:33:44;27.20;11.00
108;DHT22;49;48.530;9.200;2023-08-20T18:14:24;29.30;4.80
108;DHT22;49;48.530;9.200;2023-08-20T20:34:37;28.50;11.00
